Albee, South Dakota
Current Conditions -  °F | °C
As of 4:33 AM on Monday 20 Oct 2014 (Local Time) from KDXX Reporting Station
Clear Clear  
Wind Chill: 40°   Ceiling: Unl
Heat Index: 45°   Visibility: 10mi
Dew Point: 37°   Wind: 8mph
Humidity: 76%   Direction: 290°WNW
Pressure: 29.99"   Gusts: NA
Location:  45.0205°N, 96.5453°W
Report Text: KDXX 200933Z AUTO 29007KT 10SM CLR 07/03 A2999 RMK AO2
Loading
Personal Weather Stations






























Interactive Weather Map
Tropical Storm Tracking
New forecast layout! Learn more

10-Day Weather Forecast

Advertisements
Track Severe Weather on mobile